Time;durP1;ratioP1;P1;durP2;ratioP2;P2;SDS_P1;SDS_P2;PMS_P1;PMS_P2;Temp;Humidity;BMP_temperature;BMP_pressure;BME280_temperature;BME280_humidity;BME280_pressure;Samples;Min_cycle;Max_cycle;Signal;HPM_P1;HPM_P2
2020/12/15 00:01:55;;;;;;;0.75;0.20;;;21.50;41.60;;;;;;5084957;28;20723;-44
2020/12/15 00:04:21;;;;;;;0.50;0.20;;;21.50;41.60;;;;;;5083188;28;20044;-46
2020/12/15 00:06:47;;;;;;;0.38;0.10;;;21.50;41.50;;;;;;5078251;28;20039;-48
2020/12/15 00:09:12;;;;;;;0.50;0.20;;;21.50;41.60;;;;;;5080187;28;20096;-50
2020/12/15 00:11:38;;;;;;;0.57;0.20;;;21.40;41.50;;;;;;5078881;28;20214;-43
2020/12/15 00:14:04;;;;;;;0.40;0.10;;;21.40;41.50;;;;;;5082246;28;20374;-44
2020/12/15 00:16:29;;;;;;;0.40;0.20;;;21.40;41.50;;;;;;5082703;28;20040;-45
2020/12/15 00:18:55;;;;;;;0.50;0.20;;;21.40;41.50;;;;;;5079609;28;20055;-46
2020/12/15 00:21:25;;;;;;;0.40;0.10;;;21.30;41.50;;;;;;5077702;28;20078;-43
2020/12/15 00:23:53;;;;;;;0.47;0.10;;;21.30;41.50;;;;;;5075673;28;20032;-43
2020/12/15 00:26:20;;;;;;;0.63;0.10;;;21.30;41.50;;;;;;5077283;28;20071;-44
2020/12/15 00:28:48;;;;;;;0.43;0.20;;;21.30;41.50;;;;;;5079371;28;20056;-47
2020/12/15 00:31:15;;;;;;;0.40;0.10;;;21.30;41.50;;;;;;5077551;28;20032;-43
2020/12/15 00:33:41;;;;;;;0.50;0.20;;;21.30;41.60;;;;;;5080495;28;20035;-45
2020/12/15 00:36:07;;;;;;;0.50;0.20;;;21.20;41.60;;;;;;5070237;28;20052;-47
2020/12/15 00:38:32;;;;;;;0.57;0.10;;;21.20;41.60;;;;;;5086169;28;20370;-46
2020/12/15 00:40:58;;;;;;;0.50;0.13;;;21.20;41.70;;;;;;5079257;28;20031;-43
2020/12/15 00:43:24;;;;;;;0.45;0.20;;;21.20;41.60;;;;;;5088371;28;20035;-45
2020/12/15 00:45:49;;;;;;;0.40;0.10;;;21.20;41.70;;;;;;5073102;28;20020;-43
2020/12/15 00:48:15;;;;;;;0.60;0.10;;;21.20;41.70;;;;;;5086661;28;20031;-45
2020/12/15 00:50:41;;;;;;;0.43;0.10;;;21.10;41.60;;;;;;5084757;28;20035;-46
2020/12/15 00:53:06;;;;;;;0.80;0.10;;;21.10;41.60;;;;;;5083931;28;20035;-43
2020/12/15 00:55:32;;;;;;;0.30;0.10;;;21.10;41.60;;;;;;5077841;28;20629;-44
2020/12/15 00:57:58;;;;;;;1.75;0.10;;;21.10;41.60;;;;;;5077818;28;20020;-43
2020/12/15 01:00:23;;;;;;;0.50;0.25;;;21.10;41.60;;;;;;5078286;28;20026;-47
2020/12/15 01:02:49;;;;;;;0.28;0.10;;;21.10;41.60;;;;;;5089417;28;20420;-43
2020/12/15 01:05:15;;;;;;;0.38;0.13;;;21.00;41.60;;;;;;5077849;28;20393;-45
2020/12/15 01:07:40;;;;;;;0.32;0.10;;;21.00;41.60;;;;;;5074573;28;20485;-45
2020/12/15 01:10:06;;;;;;;0.40;0.10;;;21.00;41.60;;;;;;5080289;28;20094;-50
2020/12/15 01:12:32;;;;;;;0.50;0.20;;;21.00;41.60;;;;;;5089353;28;20667;-46
2020/12/15 01:14:59;;;;;;;0.30;0.10;;;21.00;41.60;;;;;;5084273;28;20036;-44
2020/12/15 01:17:24;;;;;;;0.25;0.10;;;21.00;41.60;;;;;;5086255;28;20042;-45
2020/12/15 01:19:50;;;;;;;0.38;0.10;;;21.00;41.60;;;;;;5081412;28;20183;-45
2020/12/15 01:22:15;;;;;;;0.57;0.20;;;20.90;41.60;;;;;;5081926;28;20114;-45
2020/12/15 01:24:41;;;;;;;0.38;0.17;;;20.90;41.60;;;;;;5085639;28;20016;-46
2020/12/15 01:27:06;;;;;;;0.30;0.10;;;20.90;41.60;;;;;;5076519;28;20120;-46
2020/12/15 01:29:32;;;;;;;0.25;0.10;;;20.90;41.60;;;;;;5076452;28;20032;-43
2020/12/15 01:32:01;;;;;;;0.45;0.10;;;20.90;41.70;;;;;;5076899;28;20032;-46
2020/12/15 01:34:26;;;;;;;0.30;0.10;;;20.80;41.70;;;;;;5079095;28;20125;-43
2020/12/15 01:36:52;;;;;;;0.73;0.20;;;20.80;41.60;;;;;;5073076;28;20531;-45
2020/12/15 01:39:18;;;;;;;0.30;0.13;;;20.80;41.60;;;;;;5075249;28;20635;-42
2020/12/15 01:41:43;;;;;;;1.42;0.20;;;20.80;41.70;;;;;;5078010;28;20028;-43
2020/12/15 01:44:09;;;;;;;0.70;0.20;;;20.80;41.70;;;;;;5082722;28;20096;-44
2020/12/15 01:46:35;;;;;;;0.57;0.10;;;20.80;41.70;;;;;;5073168;28;20033;-46
2020/12/15 01:49:01;;;;;;;0.73;0.20;;;20.80;41.60;;;;;;5077255;28;20031;-47
2020/12/15 01:51:28;;;;;;;0.43;0.10;;;20.80;41.70;;;;;;5088212;28;20060;-49
2020/12/15 01:53:55;;;;;;;0.50;0.10;;;20.70;41.60;;;;;;5082217;28;20024;-43
2020/12/15 01:56:21;;;;;;;0.40;0.10;;;20.70;41.70;;;;;;5065066;28;20052;-43
2020/12/15 01:58:52;;;;;;;0.40;0.10;;;20.70;41.70;;;;;;5087733;28;20540;-43
2020/12/15 02:01:18;;;;;;;0.30;0.10;;;20.70;41.70;;;;;;5077784;28;20020;-45
2020/12/15 02:03:44;;;;;;;0.30;0.10;;;20.70;41.70;;;;;;5086816;28;20365;-45
2020/12/15 02:06:10;;;;;;;0.65;0.20;;;20.70;41.70;;;;;;5081594;28;20435;-43
2020/12/15 02:08:36;;;;;;;0.55;0.10;;;20.70;41.80;;;;;;5081889;28;20096;-42
2020/12/15 02:11:02;;;;;;;0.40;0.10;;;20.70;41.80;;;;;;5079486;28;20183;-44
2020/12/15 02:13:28;;;;;;;0.40;0.10;;;20.70;41.70;;;;;;5079096;28;20392;-43
2020/12/15 02:15:53;;;;;;;0.70;0.17;;;20.70;41.70;;;;;;5078902;28;20029;-42
2020/12/15 02:18:19;;;;;;;0.40;0.10;;;20.70;41.70;;;;;;5083903;28;20036;-44
2020/12/15 02:20:45;;;;;;;0.57;0.20;;;20.70;41.80;;;;;;5072801;28;20024;-49
2020/12/15 02:23:10;;;;;;;0.47;0.10;;;20.60;41.70;;;;;;5087589;28;20028;-43
2020/12/15 02:25:36;;;;;;;0.57;0.20;;;20.60;41.70;;;;;;5089939;28;20125;-43
2020/12/15 02:28:03;;;;;;;0.40;0.10;;;20.60;41.70;;;;;;5085603;28;20063;-42
2020/12/15 02:30:28;;;;;;;0.68;0.10;;;20.60;41.70;;;;;;5089145;28;20036;-41
2020/12/15 02:32:54;;;;;;;0.57;0.10;;;20.60;41.70;;;;;;5081609;28;20020;-44
2020/12/15 02:35:20;;;;;;;0.40;0.10;;;20.60;41.70;;;;;;5072510;28;20060;-47
2020/12/15 02:37:45;;;;;;;0.50;0.10;;;20.60;41.70;;;;;;5099095;28;20396;-48
2020/12/15 02:40:11;;;;;;;0.30;0.10;;;20.60;41.70;;;;;;5077428;28;20025;-43
2020/12/15 02:42:37;;;;;;;0.43;0.10;;;20.60;41.80;;;;;;5078069;28;20092;-45
2020/12/15 02:45:03;;;;;;;0.50;0.13;;;20.60;41.80;;;;;;5086708;28;20032;-44
2020/12/15 02:47:28;;;;;;;0.38;0.20;;;20.60;41.80;;;;;;5080170;28;20035;-45
2020/12/15 02:49:54;;;;;;;1.35;0.15;;;20.50;41.80;;;;;;5086189;28;20056;-43
2020/12/15 02:52:20;;;;;;;0.38;0.10;;;20.50;41.80;;;;;;5084150;28;20012;-43
2020/12/15 02:54:48;;;;;;;0.70;0.10;;;20.50;41.80;;;;;;5072588;28;20024;-43
2020/12/15 02:57:14;;;;;;;0.25;0.10;;;20.50;41.70;;;;;;5081238;28;20032;-44
2020/12/15 02:59:40;;;;;;;0.60;0.10;;;20.50;41.80;;;;;;5083747;28;20028;-42
2020/12/15 03:02:06;;;;;;;0.30;0.10;;;20.50;41.80;;;;;;5081764;28;20027;-44
2020/12/15 03:04:31;;;;;;;0.50;0.17;;;20.50;41.80;;;;;;5086857;28;20033;-44
2020/12/15 03:06:57;;;;;;;0.52;0.20;;;20.50;41.80;;;;;;5079720;28;20028;-42
2020/12/15 03:09:22;;;;;;;0.40;0.10;;;20.50;41.90;;;;;;5080310;28;20153;-44
2020/12/15 03:11:48;;;;;;;1.25;0.10;;;20.50;41.90;;;;;;5082430;28;20035;-43
2020/12/15 03:14:13;;;;;;;0.80;0.13;;;20.50;41.90;;;;;;5085211;28;20024;-43
2020/12/15 03:16:39;;;;;;;0.40;0.10;;;20.50;42.40;;;;;;5081135;28;20065;-43
2020/12/15 03:19:04;;;;;;;0.30;0.10;;;20.40;41.80;;;;;;5078703;28;20028;-45
2020/12/15 03:21:35;;;;;;;0.30;0.10;;;20.40;41.90;;;;;;5075569;28;20025;-42
2020/12/15 03:24:02;;;;;;;0.60;0.20;;;20.40;41.90;;;;;;5086799;28;20022;-43
2020/12/15 03:26:28;;;;;;;0.40;0.10;;;20.40;41.90;;;;;;5074760;28;20082;-44
2020/12/15 03:28:53;;;;;;;0.60;0.20;;;20.40;41.80;;;;;;5084302;28;20488;-43
2020/12/15 03:31:19;;;;;;;1.67;0.10;;;20.40;41.80;;;;;;5079400;28;20547;-47
2020/12/15 03:33:46;;;;;;;0.50;0.10;;;20.40;41.80;;;;;;5081670;28;20036;-45
2020/12/15 03:36:11;;;;;;;0.25;0.10;;;20.40;41.90;;;;;;5082873;28;20731;-45
2020/12/15 03:38:37;;;;;;;0.68;0.10;;;20.40;41.90;;;;;;5078671;28;20056;-45
2020/12/15 03:41:02;;;;;;;0.50;0.10;;;20.40;41.90;;;;;;5071112;28;20024;-43
2020/12/15 03:43:28;;;;;;;0.57;0.20;;;20.40;41.90;;;;;;5074607;28;20024;-43
2020/12/15 03:45:53;;;;;;;0.40;0.20;;;20.40;41.90;;;;;;5089736;28;20020;-43
2020/12/15 03:48:19;;;;;;;0.30;0.10;;;20.40;41.90;;;;;;5087131;28;20020;-44
2020/12/15 03:50:44;;;;;;;0.40;0.10;;;20.40;41.90;;;;;;5083242;28;20024;-44
2020/12/15 03:53:10;;;;;;;1.00;0.20;;;20.40;41.90;;;;;;5079377;28;20086;-42
2020/12/15 03:55:35;;;;;;;0.35;0.10;;;20.30;41.80;;;;;;5081195;28;20050;-44
2020/12/15 03:58:01;;;;;;;0.40;0.10;;;20.30;41.80;;;;;;5084148;28;20100;-46
2020/12/15 04:00:26;;;;;;;0.20;0.10;;;20.30;41.90;;;;;;5081324;28;20056;-45
2020/12/15 04:02:53;;;;;;;0.43;0.20;;;20.30;41.80;;;;;;5083268;28;20459;-43
2020/12/15 04:05:18;;;;;;;0.45;0.20;;;20.30;41.90;;;;;;5084779;28;20024;-41
2020/12/15 04:07:44;;;;;;;0.50;0.10;;;20.30;42.40;;;;;;5081059;28;20074;-44
2020/12/15 04:10:10;;;;;;;0.38;0.10;;;20.30;41.90;;;;;;5076799;28;20141;-45
2020/12/15 04:12:36;;;;;;;0.30;0.10;;;20.30;41.90;;;;;;5079161;28;20489;-43
2020/12/15 04:15:04;;;;;;;0.57;0.10;;;20.30;41.90;;;;;;5085317;28;20058;-42
2020/12/15 04:17:30;;;;;;;0.50;0.20;;;20.30;41.90;;;;;;5073227;28;20137;-44
2020/12/15 04:19:55;;;;;;;0.68;0.13;;;20.30;41.90;;;;;;5081648;28;20151;-43
2020/12/15 04:22:21;;;;;;;0.40;0.10;;;20.30;41.90;;;;;;5059897;28;20548;-43
2020/12/15 04:24:46;;;;;;;0.63;0.20;;;20.30;41.90;;;;;;5086479;28;20024;-43
2020/12/15 04:27:12;;;;;;;1.77;0.32;;;20.20;41.90;;;;;;5070714;28;20046;-43
2020/12/15 04:29:37;;;;;;;0.30;0.10;;;20.20;41.90;;;;;;5078462;28;20088;-44
2020/12/15 04:32:03;;;;;;;0.40;0.20;;;20.20;41.90;;;;;;5084966;28;20035;-44
2020/12/15 04:34:29;;;;;;;0.40;0.10;;;20.20;41.90;;;;;;5074718;28;20061;-47
2020/12/15 04:36:56;;;;;;;0.40;0.10;;;20.20;41.90;;;;;;5081228;28;20619;-43
2020/12/15 04:39:22;;;;;;;0.38;0.10;;;20.20;41.90;;;;;;5074442;28;20025;-43
2020/12/15 04:41:47;;;;;;;0.93;0.10;;;20.20;42.00;;;;;;5080586;28;20393;-44
2020/12/15 04:44:13;;;;;;;0.30;0.10;;;20.20;42.00;;;;;;5074502;28;20056;-44
2020/12/15 04:47:27;;;;;;;0.40;0.15;;;20.20;42.00;;;;;;5088049;28;20028;-46
2020/12/15 04:50:05;;;;;;;0.28;0.10;;;20.20;42.00;;;;;;5067100;28;20104;-44
2020/12/15 04:53:02;;;;;;;0.55;0.10;;;20.20;42.00;;;;;;5072260;28;20032;-45
2020/12/15 04:55:28;;;;;;;0.40;0.10;;;20.20;42.00;;;;;;5070935;28;20036;-45
2020/12/15 04:57:55;;;;;;;0.30;0.10;;;20.20;42.00;;;;;;5070094;28;20027;-43
2020/12/15 05:00:21;;;;;;;0.40;0.15;;;20.20;42.00;;;;;;5078544;28;20086;-44
2020/12/15 05:02:53;;;;;;;0.40;0.10;;;20.10;42.50;;;;;;5082160;28;20028;-42
2020/12/15 05:05:20;;;;;;;0.30;0.10;;;20.20;42.00;;;;;;5072171;28;20474;-48
2020/12/15 05:07:46;;;;;;;0.60;0.10;;;20.10;42.00;;;;;;5077279;28;20080;-42
2020/12/15 05:10:15;;;;;;;0.43;0.17;;;20.10;42.00;;;;;;5084775;28;20036;-43
2020/12/15 05:12:42;;;;;;;0.47;0.10;;;20.10;42.50;;;;;;5072959;28;20028;-45
2020/12/15 05:15:09;;;;;;;0.30;0.10;;;20.10;42.00;;;;;;5081555;28;20700;-45
2020/12/15 05:17:35;;;;;;;0.50;0.10;;;20.10;42.00;;;;;;5070726;28;20623;-43
2020/12/15 05:20:00;;;;;;;0.52;0.10;;;20.10;42.00;;;;;;5073664;28;20024;-46
2020/12/15 05:22:47;;;;;;;0.40;0.10;;;20.10;42.00;;;;;;5072927;28;20465;-44
2020/12/15 05:25:27;;;;;;;0.40;0.20;;;20.10;42.10;;;;;;5076410;28;20082;-43
2020/12/15 05:27:54;;;;;;;0.38;0.10;;;20.10;42.00;;;;;;5075969;28;20029;-47
2020/12/15 05:30:20;;;;;;;0.40;0.10;;;20.10;42.00;;;;;;5072705;28;20035;-46
2020/12/15 05:32:51;;;;;;;0.25;0.10;;;20.10;42.10;;;;;;5088453;28;20016;-43
2020/12/15 05:35:33;;;;;;;0.30;0.10;;;20.10;42.10;;;;;;5072961;28;20043;-44
2020/12/15 05:38:00;;;;;;;0.40;0.10;;;20.10;42.10;;;;;;5083831;28;20524;-44
2020/12/15 05:40:26;;;;;;;0.38;0.10;;;20.10;42.10;;;;;;5056438;28;20036;-44
2020/12/15 05:42:56;;;;;;;0.32;0.15;;;20.10;42.10;;;;;;5069631;28;20040;-46
2020/12/15 05:45:22;;;;;;;0.40;0.10;;;20.10;42.00;;;;;;5079451;28;20114;-44
2020/12/15 05:47:49;;;;;;;0.40;0.10;;;20.10;42.10;;;;;;5079755;28;20032;-44
2020/12/15 05:50:24;;;;;;;0.32;0.10;;;20.00;42.10;;;;;;5082045;28;20028;-43
2020/12/15 05:53:01;;;;;;;0.28;0.10;;;20.10;42.10;;;;;;5081257;28;20119;-42
2020/12/15 05:55:27;;;;;;;0.10;0.00;;;20.10;42.20;;;;;;5082300;28;20107;-43
2020/12/15 05:57:54;;;;;;;0.35;0.10;;;20.00;42.10;;;;;;5086158;22;20049;-49
2020/12/15 06:00:20;;;;;;;0.32;0.10;;;20.00;42.10;;;;;;5040332;28;20056;-49
2020/12/15 06:03:06;;;;;;;0.50;0.10;;;20.00;42.00;;;;;;5050249;28;20044;-50
2020/12/15 06:05:34;;;;;;;1.10;0.10;;;20.00;42.10;;;;;;5052972;28;20144;-50
2020/12/15 06:08:01;;;;;;;0.63;0.20;;;20.00;42.10;;;;;;5047822;28;20030;-49
2020/12/15 06:10:28;;;;;;;0.40;0.10;;;20.00;42.20;;;;;;5053348;28;20086;-51
2020/12/15 06:12:59;;;;;;;0.30;0.10;;;20.00;42.10;;;;;;5041981;28;20033;-50
2020/12/15 06:15:25;;;;;;;1.00;0.13;;;20.00;42.10;;;;;;5052285;28;20079;-50
2020/12/15 06:17:53;;;;;;;0.35;0.10;;;20.00;42.20;;;;;;5046147;28;20029;-50
2020/12/15 06:20:19;;;;;;;0.50;0.13;;;20.00;42.10;;;;;;5052325;28;20389;-50
2020/12/15 06:22:53;;;;;;;0.60;0.10;;;20.00;42.10;;;;;;5050840;28;20024;-52
2020/12/15 06:25:28;;;;;;;0.40;0.10;;;20.00;42.10;;;;;;5048253;28;20021;-49
2020/12/15 06:28:08;;;;;;;0.45;0.10;;;19.90;42.10;;;;;;5047983;28;20032;-51
2020/12/15 06:30:36;;;;;;;0.30;0.10;;;20.00;42.10;;;;;;5048567;28;20044;-49
2020/12/15 06:33:04;;;;;;;0.30;0.10;;;20.10;42.00;;;;;;5043734;28;20029;-52
2020/12/15 06:35:30;;;;;;;0.45;0.10;;;20.20;41.80;;;;;;5052121;28;20044;-50
2020/12/15 06:37:56;;;;;;;0.30;0.10;;;20.40;41.60;;;;;;5049935;28;20029;-49
2020/12/15 06:40:22;;;;;;;0.30;0.10;;;20.50;41.40;;;;;;5051133;28;20025;-46
2020/12/15 06:42:49;;;;;;;0.50;0.10;;;20.60;41.10;;;;;;5048924;28;20056;-49
2020/12/15 06:45:15;;;;;;;0.45;0.10;;;20.70;40.90;;;;;;5049283;28;20509;-53
2020/12/15 06:47:40;;;;;;;0.20;0.10;;;20.80;40.80;;;;;;5046123;28;20036;-50
2020/12/15 06:50:17;;;;;;;0.32;0.10;;;20.90;40.70;;;;;;5034280;28;20032;-51
2020/12/15 06:52:43;;;;;;;0.32;0.10;;;21.00;40.70;;;;;;5051306;28;20382;-50
2020/12/15 06:55:09;;;;;;;0.20;0.10;;;21.00;40.60;;;;;;5050136;28;20032;-51
2020/12/15 06:57:37;;;;;;;0.30;0.10;;;21.00;40.60;;;;;;5047275;28;20478;-50
2020/12/15 07:00:12;;;;;;;0.30;0.10;;;21.10;40.60;;;;;;5046347;28;20036;-50
2020/12/15 07:02:39;;;;;;;0.25;0.15;;;21.10;40.50;;;;;;5051724;28;20029;-51
2020/12/15 07:05:24;;;;;;;0.75;0.20;;;21.10;40.50;;;;;;5049998;28;20486;-51
2020/12/15 07:07:54;;;;;;;0.30;0.10;;;21.10;40.50;;;;;;5051518;28;20484;-48
2020/12/15 07:10:23;;;;;;;0.43;0.20;;;21.20;40.50;;;;;;5048879;28;20026;-46
2020/12/15 07:12:50;;;;;;;0.32;0.10;;;21.20;40.50;;;;;;5040309;28;20119;-49
2020/12/15 07:15:16;;;;;;;0.50;0.15;;;21.20;40.50;;;;;;5051382;28;20036;-49
2020/12/15 07:17:45;;;;;;;0.40;0.13;;;21.20;40.50;;;;;;5052413;28;20393;-48
2020/12/15 07:20:11;;;;;;;0.60;0.20;;;21.20;40.50;;;;;;5051417;28;20029;-50
2020/12/15 07:22:37;;;;;;;0.43;0.22;;;21.20;40.50;;;;;;5046295;28;20556;-50
2020/12/15 07:25:04;;;;;;;1.13;0.30;;;21.20;40.50;;;;;;5046256;28;20033;-47
2020/12/15 07:27:31;;;;;;;0.77;0.30;;;21.20;40.50;;;;;;5049877;28;20032;-50
2020/12/15 07:29:58;;;;;;;1.23;0.30;;;21.20;40.60;;;;;;5050121;28;20072;-49
2020/12/15 07:32:23;;;;;;;0.60;0.20;;;21.20;40.60;;;;;;5046178;28;20032;-47
2020/12/15 07:34:49;;;;;;;0.65;0.35;;;21.20;40.70;;;;;;5046937;28;20383;-46
2020/12/15 07:37:19;;;;;;;0.95;0.30;;;21.20;40.80;;;;;;5047483;28;20115;-47
2020/12/15 07:39:48;;;;;;;0.63;0.30;;;21.10;40.80;;;;;;5049510;28;20560;-49
2020/12/15 07:42:13;;;;;;;0.47;0.22;;;21.10;40.90;;;;;;5050155;28;20112;-49
2020/12/15 07:44:39;;;;;;;1.05;0.30;;;21.10;41.00;;;;;;5046468;28;20115;-49
2020/12/15 07:47:04;;;;;;;0.90;0.30;;;21.10;41.10;;;;;;5049626;28;20441;-49
2020/12/15 07:49:30;;;;;;;0.60;0.30;;;21.00;41.10;;;;;;5048227;28;20029;-48
2020/12/15 07:51:56;;;;;;;0.98;0.40;;;21.00;41.20;;;;;;5043960;28;20025;-46
2020/12/15 07:54:21;;;;;;;0.68;0.30;;;21.00;41.30;;;;;;5050036;28;20029;-48
2020/12/15 07:56:49;;;;;;;1.33;0.50;;;21.00;41.20;;;;;;5043831;28;20036;-49
2020/12/15 07:59:15;;;;;;;1.08;0.30;;;21.00;41.50;;;;;;5047901;28;20052;-49
2020/12/15 08:01:41;;;;;;;0.73;0.30;;;21.00;41.60;;;;;;5046765;28;20029;-49
2020/12/15 08:04:09;;;;;;;1.02;0.30;;;20.90;41.70;;;;;;5047936;28;20083;-50
2020/12/15 08:06:44;;;;;;;1.60;0.50;;;20.80;41.70;;;;;;5051545;28;20037;-50
2020/12/15 08:09:11;;;;;;;1.75;0.40;;;20.80;41.80;;;;;;5048745;28;20489;-49
2020/12/15 08:11:42;;;;;;;2.25;0.70;;;20.80;41.80;;;;;;5048335;28;20032;-49
2020/12/15 08:14:09;;;;;;;0.68;0.20;;;20.70;41.90;;;;;;5047550;28;20065;-49
2020/12/15 08:16:34;;;;;;;1.08;0.63;;;20.70;42.00;;;;;;5047597;28;20110;-49
2020/12/15 08:19:02;;;;;;;1.80;0.57;;;20.70;42.00;;;;;;5043716;28;20454;-48
2020/12/15 08:21:49;;;;;;;1.60;0.40;;;20.70;42.20;;;;;;5044175;28;20030;-48
2020/12/15 08:24:21;;;;;;;1.33;0.40;;;20.80;42.00;;;;;;5039205;28;20029;-48
2020/12/15 08:26:47;;;;;;;0.70;0.45;;;20.90;41.80;;;;;;5039289;28;20029;-52
2020/12/15 08:29:14;;;;;;;2.83;0.60;;;21.00;41.70;;;;;;5044347;28;20036;-50
2020/12/15 08:31:42;;;;;;;2.05;0.60;;;21.00;41.80;;;;;;5042104;28;20039;-52
2020/12/15 08:34:19;;;;;;;1.48;0.40;;;21.00;41.90;;;;;;5043651;28;20655;-51
2020/12/15 08:36:53;;;;;;;0.80;0.40;;;21.00;42.00;;;;;;5046385;28;20029;-50
2020/12/15 08:39:22;;;;;;;2.60;0.82;;;21.10;41.90;;;;;;5042813;28;20031;-49
2020/12/15 08:41:53;;;;;;;1.83;0.73;;;21.00;42.00;;;;;;5045353;28;20040;-51
2020/12/15 08:44:20;;;;;;;1.58;0.43;;;21.00;42.20;;;;;;5047707;28;21039;-49
2020/12/15 08:46:46;;;;;;;3.67;0.55;;;21.00;42.40;;;;;;5044772;28;20443;-50
2020/12/15 08:49:13;;;;;;;0.90;0.50;;;21.00;42.60;;;;;;5040254;28;20084;-51
2020/12/15 08:51:42;;;;;;;0.75;0.40;;;20.90;42.60;;;;;;5039856;28;20099;-55
2020/12/15 08:54:08;;;;;;;1.10;0.60;;;20.90;42.80;;;;;;5044428;28;20090;-45
2020/12/15 08:56:34;;;;;;;2.80;0.40;;;20.90;42.60;;;;;;5045984;28;20041;-48
2020/12/15 08:59:11;;;;;;;1.20;0.40;;;21.10;42.40;;;;;;5047351;28;20079;-52
2020/12/15 09:01:37;;;;;;;1.00;0.60;;;21.10;42.40;;;;;;5042324;28;20577;-51
2020/12/15 09:04:02;;;;;;;0.82;0.35;;;21.30;42.30;;;;;;5029183;28;20056;-48
2020/12/15 09:06:35;;;;;;;2.45;0.47;;;21.40;42.10;;;;;;5028001;28;20128;-48
2020/12/15 09:09:01;;;;;;;1.85;0.40;;;21.50;42.00;;;;;;5044009;28;20451;-47
2020/12/15 09:11:27;;;;;;;1.38;0.40;;;21.60;41.80;;;;;;5045174;28;20029;-49
2020/12/15 09:13:54;;;;;;;1.20;0.50;;;21.60;41.90;;;;;;5043162;28;20029;-49
2020/12/15 09:16:25;;;;;;;0.80;0.50;;;21.60;41.80;;;;;;5043530;28;20033;-47
2020/12/15 09:18:51;;;;;;;1.30;0.50;;;21.70;41.70;;;;;;5042354;28;20037;-48
2020/12/15 09:21:21;;;;;;;0.60;0.20;;;21.70;41.60;;;;;;5041507;28;20027;-47
2020/12/15 09:23:52;;;;;;;0.90;0.30;;;21.70;41.50;;;;;;5041378;28;20062;-48
2020/12/15 09:26:19;;;;;;;1.00;0.43;;;21.70;41.40;;;;;;5040786;28;20529;-49
2020/12/15 09:28:44;;;;;;;0.90;0.52;;;21.70;41.40;;;;;;5038618;28;20033;-47
2020/12/15 09:31:15;;;;;;;1.00;0.40;;;21.80;41.40;;;;;;5048959;28;20075;-46
2020/12/15 09:33:40;;;;;;;0.90;0.60;;;21.70;41.40;;;;;;5045555;28;20033;-46
2020/12/15 09:36:06;;;;;;;0.88;0.40;;;21.70;41.40;;;;;;5045669;28;20406;-48
2020/12/15 09:38:32;;;;;;;2.65;0.50;;;21.70;41.40;;;;;;5043889;28;20048;-48
2020/12/15 09:40:58;;;;;;;0.98;0.38;;;21.70;41.50;;;;;;5041711;28;20108;-48
2020/12/15 09:43:24;;;;;;;1.30;0.45;;;21.70;41.50;;;;;;5045301;28;20074;-48
2020/12/15 09:45:50;;;;;;;1.00;0.40;;;21.60;41.50;;;;;;5040215;28;20021;-49
2020/12/15 09:48:16;;;;;;;1.30;0.30;;;21.60;41.60;;;;;;5041925;28;20044;-48
2020/12/15 09:50:42;;;;;;;1.77;0.40;;;21.50;41.60;;;;;;5047483;28;20032;-53
2020/12/15 09:53:07;;;;;;;1.30;0.50;;;21.50;41.70;;;;;;5050034;28;20025;-54
2020/12/15 09:55:33;;;;;;;1.10;0.45;;;21.50;41.80;;;;;;5046765;28;20033;-54
2020/12/15 09:57:58;;;;;;;1.15;0.35;;;21.50;41.80;;;;;;5047723;28;20509;-54
2020/12/15 10:00:24;;;;;;;0.80;0.30;;;21.50;42.00;;;;;;5047674;28;20429;-50
2020/12/15 10:02:49;;;;;;;0.88;0.30;;;21.50;42.00;;;;;;5047726;28;20492;-50
2020/12/15 10:05:15;;;;;;;0.60;0.30;;;21.50;42.10;;;;;;5048514;28;20694;-53
2020/12/15 10:07:40;;;;;;;0.70;0.22;;;21.50;42.20;;;;;;5042595;28;20033;-47
2020/12/15 10:10:06;;;;;;;1.00;0.30;;;21.50;42.30;;;;;;5042707;28;20033;-49
2020/12/15 10:12:32;;;;;;;1.33;0.30;;;21.50;42.30;;;;;;5045152;28;20094;-50
2020/12/15 10:14:58;;;;;;;0.60;0.20;;;21.40;42.30;;;;;;5029335;28;20029;-51
2020/12/15 10:17:24;;;;;;;1.20;0.40;;;21.40;42.50;;;;;;5043661;28;20490;-50
2020/12/15 10:19:50;;;;;;;0.77;0.30;;;21.40;42.50;;;;;;5043851;28;20040;-50
2020/12/15 10:22:15;;;;;;;1.10;0.30;;;21.40;42.60;;;;;;5041470;28;20033;-48
2020/12/15 10:24:41;;;;;;;2.10;0.35;;;21.30;42.60;;;;;;5042641;28;20033;-50
2020/12/15 10:27:06;;;;;;;0.85;0.30;;;21.30;42.70;;;;;;5044369;28;20041;-50
2020/12/15 10:29:33;;;;;;;0.88;0.50;;;21.30;43.20;;;;;;5044790;28;20041;-49
2020/12/15 10:31:58;;;;;;;0.95;0.30;;;21.30;43.40;;;;;;5046550;28;20037;-47
2020/12/15 10:34:24;;;;;;;1.23;0.30;;;21.40;43.10;;;;;;5043987;28;20100;-49
2020/12/15 10:36:50;;;;;;;0.90;0.40;;;21.40;43.00;;;;;;5049663;28;20053;-49
2020/12/15 10:39:16;;;;;;;1.23;0.30;;;21.50;42.90;;;;;;5046972;28;20018;-49
2020/12/15 10:41:42;;;;;;;1.30;0.40;;;21.60;42.70;;;;;;5045384;28;20037;-50
2020/12/15 10:44:14;;;;;;;1.17;0.50;;;21.60;42.80;;;;;;5045496;28;20017;-49
2020/12/15 10:46:41;;;;;;;2.10;0.47;;;21.60;42.70;;;;;;5048064;28;20657;-47
2020/12/15 10:49:07;;;;;;;1.33;0.50;;;21.50;42.80;;;;;;5047215;28;20036;-49
2020/12/15 10:51:33;;;;;;;1.58;0.60;;;21.50;42.90;;;;;;5038575;28;20037;-48
2020/12/15 10:53:58;;;;;;;0.82;0.60;;;21.50;43.00;;;;;;5046687;28;20406;-48
2020/12/15 10:56:24;;;;;;;4.63;0.90;;;21.40;43.00;;;;;;5042292;28;20171;-48
2020/12/15 10:58:50;;;;;;;0.88;0.45;;;21.40;43.60;;;;;;5050519;28;20035;-50
2020/12/15 11:01:15;;;;;;;2.70;0.75;;;21.30;43.00;;;;;;5045056;28;20048;-48
2020/12/15 11:03:41;;;;;;;1.00;0.70;;;21.30;43.70;;;;;;5040122;28;20422;-49
2020/12/15 11:06:06;;;;;;;1.75;0.85;;;21.40;43.10;;;;;;5046189;28;20025;-51
2020/12/15 11:08:32;;;;;;;1.20;0.68;;;21.40;42.80;;;;;;5049203;28;20055;-56
2020/12/15 11:10:57;;;;;;;1.67;0.82;;;21.40;42.80;;;;;;5052528;28;20111;-53
2020/12/15 11:13:23;;;;;;;1.63;0.80;;;21.40;42.80;;;;;;5051003;28;20037;-52
2020/12/15 11:15:49;;;;;;;1.42;1.02;;;21.40;42.90;;;;;;5046635;28;20044;-50
2020/12/15 11:18:15;;;;;;;1.85;1.40;;;21.40;43.00;;;;;;5046066;28;20021;-52
2020/12/15 11:20:41;;;;;;;1.67;1.00;;;21.30;43.20;;;;;;5043172;28;20033;-53
2020/12/15 11:23:06;;;;;;;1.52;1.00;;;21.20;43.30;;;;;;5051828;28;20009;-56
2020/12/15 11:25:32;;;;;;;2.42;1.10;;;21.20;43.30;;;;;;5051903;28;20064;-49
2020/12/15 11:27:58;;;;;;;1.42;0.95;;;21.30;43.20;;;;;;5049299;28;20025;-50
2020/12/15 11:30:24;;;;;;;1.65;0.68;;;21.30;43.20;;;;;;5048067;28;20025;-48
2020/12/15 11:32:49;;;;;;;2.17;1.38;;;21.30;43.30;;;;;;5045690;28;20025;-49
2020/12/15 11:35:15;;;;;;;1.77;1.02;;;21.30;43.50;;;;;;5049754;28;20032;-52
2020/12/15 11:37:43;;;;;;;1.73;1.10;;;21.20;43.40;;;;;;5045698;28;20192;-52
2020/12/15 11:40:10;;;;;;;1.52;0.65;;;21.10;43.50;;;;;;5045978;28;20037;-51
2020/12/15 11:42:37;;;;;;;1.88;0.65;;;21.20;43.50;;;;;;5050238;28;20044;-50
2020/12/15 11:45:06;;;;;;;1.77;0.90;;;21.30;43.80;;;;;;5048649;28;20103;-49
2020/12/15 11:47:32;;;;;;;1.40;0.73;;;21.50;43.10;;;;;;5047909;28;20247;-45
2020/12/15 11:49:57;;;;;;;1.42;0.85;;;21.70;42.80;;;;;;5048186;28;20102;-50
2020/12/15 11:52:23;;;;;;;1.17;0.60;;;21.80;42.50;;;;;;5050485;28;20041;-53
2020/12/15 11:54:49;;;;;;;3.53;0.98;;;21.90;42.30;;;;;;5052000;28;20029;-52
2020/12/15 11:57:15;;;;;;;0.90;0.50;;;22.00;42.10;;;;;;5048267;28;20527;-49
2020/12/15 11:59:41;;;;;;;3.00;0.52;;;22.10;42.10;;;;;;5049008;28;20029;-47
2020/12/15 12:02:07;;;;;;;0.77;0.50;;;22.10;42.10;;;;;;5049412;28;20033;-48
2020/12/15 12:04:32;;;;;;;0.82;0.63;;;22.20;42.00;;;;;;5046149;28;20036;-50
2020/12/15 12:06:58;;;;;;;1.10;0.60;;;22.20;42.10;;;;;;5044742;28;20025;-51
2020/12/15 12:09:24;;;;;;;0.90;0.35;;;22.20;42.00;;;;;;5044290;28;20029;-50
2020/12/15 12:11:50;;;;;;;1.10;0.43;;;22.20;41.90;;;;;;5043911;28;20464;-50
2020/12/15 12:14:17;;;;;;;1.10;0.57;;;22.30;42.10;;;;;;5046385;28;20318;-48
2020/12/15 12:16:43;;;;;;;0.90;0.63;;;22.30;42.20;;;;;;5044358;28;20040;-52
2020/12/15 12:19:08;;;;;;;0.80;0.60;;;22.30;42.20;;;;;;5047777;28;20567;-51
2020/12/15 12:21:34;;;;;;;1.70;0.50;;;22.30;42.30;;;;;;5050094;28;20028;-52
2020/12/15 12:24:00;;;;;;;0.90;0.55;;;22.40;42.30;;;;;;5048765;28;20462;-47
2020/12/15 12:26:26;;;;;;;0.70;0.30;;;22.40;42.30;;;;;;5042036;28;20094;-54
2020/12/15 12:28:53;;;;;;;1.48;0.40;;;22.40;42.70;;;;;;5044406;28;20636;-50
2020/12/15 12:31:19;;;;;;;0.90;0.40;;;22.50;42.30;;;;;;5048347;28;20088;-49
2020/12/15 12:33:44;;;;;;;0.90;0.57;;;22.50;42.30;;;;;;5048121;28;20537;-50
2020/12/15 12:36:10;;;;;;;0.98;0.38;;;22.50;42.40;;;;;;5047326;28;20561;-54
2020/12/15 12:38:35;;;;;;;3.55;0.60;;;22.50;42.30;;;;;;5048234;28;20032;-47
2020/12/15 12:41:01;;;;;;;0.70;0.30;;;22.50;42.40;;;;;;5041968;28;20712;-52
2020/12/15 12:43:27;;;;;;;1.20;0.47;;;22.50;42.50;;;;;;5040975;28;20409;-49
2020/12/15 12:45:52;;;;;;;1.10;0.50;;;22.50;42.50;;;;;;5039304;28;20037;-47
2020/12/15 12:48:19;;;;;;;0.80;0.20;;;22.40;42.50;;;;;;5041225;28;20047;-51